Time;durP1;ratioP1;P1;durP2;ratioP2;P2;SDS_P1;SDS_P2;PMS_P1;PMS_P2;Temp;Humidity;BMP_temperature;BMP_pressure;BME280_temperature;BME280_humidity;BME280_pressure;Samples;Min_cycle;Max_cycle;Signal;HPM_P1;HPM_P2
2023/07/20 00:00:15;;;;;;;1.77;1.48;;;;;;;;;;5113659;28;20673;-40
2023/07/20 00:03:23;;;;;;;2.33;1.50;;;;;;;;;;5098391;28;20658;-39
2023/07/20 00:05:51;;;;;;;3.47;1.50;;;;;;;;;;5093609;28;20202;-39
2023/07/20 00:08:18;;;;;;;1.85;1.27;;;;;;;;;;5101373;28;20676;-40
2023/07/20 00:10:46;;;;;;;2.70;1.58;;;;;;;;;;5113810;28;20230;-40
2023/07/20 00:13:13;;;;;;;2.13;1.58;;;;;;;;;;5113527;28;20222;-39
2023/07/20 00:15:40;;;;;;;2.72;1.58;;;;;;;;;;5098928;28;20226;-40
2023/07/20 00:18:07;;;;;;;2.65;1.77;;;;;;;;;;5093069;28;20679;-40
2023/07/20 00:20:35;;;;;;;3.60;1.73;;;;;;;;;;5093397;28;20198;-40
2023/07/20 00:23:02;;;;;;;3.10;1.55;;;;;;;;;;5093845;28;20202;-40
2023/07/20 00:25:30;;;;;;;4.43;1.80;;;;;;;;;;5096972;28;20209;-40
2023/07/20 00:27:57;;;;;;;3.70;1.48;;;;;;;;;;5096947;28;20727;-40
2023/07/20 00:30:24;;;;;;;2.63;1.48;;;;;;;;;;5079269;28;20260;-40
2023/07/20 00:32:51;;;;;;;2.80;1.60;;;;;;;;;;5114499;28;20280;-41
2023/07/20 00:35:19;;;;;;;6.88;1.70;;;;;;;;;;5117398;28;20224;-40
2023/07/20 00:37:46;;;;;;;1.83;1.30;;;;;;;;;;5117484;28;20198;-40
2023/07/20 00:40:13;;;;;;;2.17;1.40;;;;;;;;;;5117563;28;20202;-40
2023/07/20 00:42:40;;;;;;;3.47;1.50;;;;;;;;;;5098898;28;20194;-40
2023/07/20 00:45:08;;;;;;;4.13;1.67;;;;;;;;;;5098967;28;20213;-40
2023/07/20 00:47:36;;;;;;;2.97;1.50;;;;;;;;;;5116969;28;20665;-40
2023/07/20 00:50:05;;;;;;;1.80;1.35;;;;;;;;;;5116931;28;20658;-40
2023/07/20 00:52:33;;;;;;;2.95;1.90;;;;;;;;;;5113665;28;20291;-40
2023/07/20 00:55:01;;;;;;;2.67;1.80;;;;;;;;;;5082215;28;20270;-43
2023/07/20 00:57:29;;;;;;;2.47;1.58;;;;;;;;;;5116942;28;20194;-39
2023/07/20 00:59:57;;;;;;;2.10;1.30;;;;;;;;;;5098763;28;20213;-39
2023/07/20 01:02:24;;;;;;;2.58;1.80;;;;;;;;;;5117054;28;20194;-40
2023/07/20 01:04:52;;;;;;;2.30;1.70;;;;;;;;;;5098520;28;20209;-40
2023/07/20 01:07:24;;;;;;;3.00;1.88;;;;;;;;;;5116610;28;20215;-39
2023/07/20 01:10:16;;;;;;;2.33;1.83;;;;;;;;;;5116819;28;20255;-39
2023/07/20 01:12:47;;;;;;;2.42;1.77;;;;;;;;;;5098718;28;20606;-39
2023/07/20 01:15:14;;;;;;;3.42;2.08;;;;;;;;;;5116978;28;20214;-40
2023/07/20 01:17:41;;;;;;;3.58;2.17;;;;;;;;;;5116369;28;20220;-39
2023/07/20 01:20:11;;;;;;;5.50;1.80;;;;;;;;;;5116670;28;20194;-40
2023/07/20 01:23:02;;;;;;;3.33;1.75;;;;;;;;;;5098129;28;20198;-39
2023/07/20 01:26:03;;;;;;;2.53;1.92;;;;;;;;;;5116535;28;20555;-40
2023/07/20 01:29:02;;;;;;;2.90;1.75;;;;;;;;;;5116482;28;20209;-40
2023/07/20 01:31:32;;;;;;;3.17;1.90;;;;;;;;;;5116157;28;20205;-39
2023/07/20 01:34:01;;;;;;;3.88;2.10;;;;;;;;;;5098010;28;20296;-39
2023/07/20 01:36:31;;;;;;;3.35;2.00;;;;;;;;;;5081168;28;20271;-40
2023/07/20 01:38:58;;;;;;;3.75;1.85;;;;;;;;;;5081502;28;20202;-39
2023/07/20 01:41:26;;;;;;;2.92;1.90;;;;;;;;;;5098363;28;20562;-40
2023/07/20 01:43:53;;;;;;;2.63;2.03;;;;;;;;;;5115988;28;20198;-39
2023/07/20 01:46:20;;;;;;;3.15;1.98;;;;;;;;;;5115930;28;20217;-40
2023/07/20 01:48:48;;;;;;;3.22;1.75;;;;;;;;;;5115834;28;20758;-40
2023/07/20 01:51:17;;;;;;;5.13;1.77;;;;;;;;;;5080920;28;20701;-40
2023/07/20 01:53:44;;;;;;;1.90;1.42;;;;;;;;;;5115716;28;20202;-39
2023/07/20 01:56:14;;;;;;;7.18;2.10;;;;;;;;;;5115419;28;20222;-39
2023/07/20 01:58:41;;;;;;;1.88;1.45;;;;;;;;;;5097282;28;20526;-41
2023/07/20 02:01:08;;;;;;;3.97;2.05;;;;;;;;;;5097295;28;20568;-39
2023/07/20 02:03:35;;;;;;;4.20;1.92;;;;;;;;;;5097111;28;20249;-39
2023/07/20 02:06:03;;;;;;;3.55;2.05;;;;;;;;;;5114232;28;20206;-40
2023/07/20 02:08:30;;;;;;;2.38;2.03;;;;;;;;;;5114006;28;20201;-40
2023/07/20 02:10:58;;;;;;;3.30;2.13;;;;;;;;;;5115126;28;20216;-43
2023/07/20 02:13:24;;;;;;;2.70;1.83;;;;;;;;;;5114640;28;20283;-40
2023/07/20 02:15:52;;;;;;;5.05;2.20;;;;;;;;;;5096827;28;20221;-40
2023/07/20 02:18:20;;;;;;;3.20;1.92;;;;;;;;;;5097030;28;20226;-40
2023/07/20 02:20:48;;;;;;;2.58;1.80;;;;;;;;;;5115073;28;20267;-39
2023/07/20 02:23:15;;;;;;;3.50;2.10;;;;;;;;;;5096726;28;20707;-39
2023/07/20 02:25:42;;;;;;;3.00;2.38;;;;;;;;;;5097032;28;20650;-39
2023/07/20 02:28:09;;;;;;;5.70;2.25;;;;;;;;;;5115038;28;20202;-40
2023/07/20 02:30:39;;;;;;;4.47;2.03;;;;;;;;;;5096875;28;20560;-39
2023/07/20 02:33:07;;;;;;;5.05;2.10;;;;;;;;;;5114758;28;20198;-39
2023/07/20 02:35:34;;;;;;;1.95;1.73;;;;;;;;;;5096544;28;20230;-39
2023/07/20 02:38:01;;;;;;;4.30;1.95;;;;;;;;;;5114588;28;20221;-40
2023/07/20 02:40:28;;;;;;;4.30;2.20;;;;;;;;;;5096390;28;20202;-40
2023/07/20 02:42:55;;;;;;;4.50;2.60;;;;;;;;;;5096781;28;20251;-39
2023/07/20 02:45:23;;;;;;;4.18;2.35;;;;;;;;;;5114107;28;20209;-39
2023/07/20 02:47:50;;;;;;;3.33;2.35;;;;;;;;;;5096198;28;20194;-40
2023/07/20 02:50:17;;;;;;;5.00;1.80;;;;;;;;;;5114337;28;20209;-39
2023/07/20 02:52:45;;;;;;;3.90;1.80;;;;;;;;;;5114161;28;20226;-39
2023/07/20 02:55:13;;;;;;;2.80;2.08;;;;;;;;;;5096495;28;20234;-39
2023/07/20 02:57:39;;;;;;;2.92;2.10;;;;;;;;;;5114223;28;20202;-39
2023/07/20 03:00:07;;;;;;;3.08;2.03;;;;;;;;;;5114221;28;20194;-39
2023/07/20 03:02:34;;;;;;;3.67;2.22;;;;;;;;;;5114611;28;20255;-39
2023/07/20 03:05:05;;;;;;;3.70;2.10;;;;;;;;;;5114339;28;20202;-39
2023/07/20 03:07:32;;;;;;;3.60;2.35;;;;;;;;;;5096277;28;20718;-39
2023/07/20 03:10:00;;;;;;;2.80;1.90;;;;;;;;;;5114713;28;20249;-39
2023/07/20 03:12:27;;;;;;;2.95;2.30;;;;;;;;;;5114500;28;20209;-39
2023/07/20 03:14:56;;;;;;;3.70;2.20;;;;;;;;;;5096533;28;20198;-39
2023/07/20 03:17:25;;;;;;;3.35;2.22;;;;;;;;;;5096127;28;20202;-39
2023/07/20 03:19:52;;;;;;;5.80;2.28;;;;;;;;;;5079664;28;20194;-39
2023/07/20 03:22:21;;;;;;;5.30;2.40;;;;;;;;;;5114085;28;20213;-39
2023/07/20 03:24:48;;;;;;;3.42;2.20;;;;;;;;;;5114148;28;20579;-39
2023/07/20 03:27:15;;;;;;;2.50;1.80;;;;;;;;;;5095733;28;20658;-40
2023/07/20 03:29:44;;;;;;;2.67;2.10;;;;;;;;;;5095953;28;20201;-39
2023/07/20 03:32:11;;;;;;;3.97;2.40;;;;;;;;;;5108146;28;20190;-39
2023/07/20 03:34:38;;;;;;;3.75;2.47;;;;;;;;;;5110157;28;20202;-41
2023/07/20 03:37:06;;;;;;;3.85;2.40;;;;;;;;;;5092820;28;20301;-40
2023/07/20 03:39:33;;;;;;;3.30;2.13;;;;;;;;;;5085699;28;20525;-42
2023/07/20 03:42:00;;;;;;;4.88;2.08;;;;;;;;;;5093581;28;20217;-47
2023/07/20 03:44:29;;;;;;;5.78;2.40;;;;;;;;;;5109631;28;20198;-40
2023/07/20 03:46:56;;;;;;;5.07;2.60;;;;;;;;;;5087844;28;20201;-42
2023/07/20 03:49:23;;;;;;;3.83;2.60;;;;;;;;;;5085819;28;20553;-42
2023/07/20 03:51:50;;;;;;;4.38;2.30;;;;;;;;;;5057812;28;20313;-42
2023/07/20 03:54:18;;;;;;;4.75;2.40;;;;;;;;;;5105205;28;20199;-42
2023/07/20 03:56:46;;;;;;;4.47;2.70;;;;;;;;;;5084396;28;20302;-42
2023/07/20 03:59:14;;;;;;;4.47;2.30;;;;;;;;;;5107362;28;20650;-42
2023/07/20 04:01:41;;;;;;;3.67;2.28;;;;;;;;;;5112316;28;20218;-42
2023/07/20 04:04:08;;;;;;;3.53;2.35;;;;;;;;;;5104052;28;20281;-40
2023/07/20 04:06:36;;;;;;;4.45;2.50;;;;;;;;;;5098792;28;20304;-40
2023/07/20 04:09:05;;;;;;;6.60;2.83;;;;;;;;;;5103746;28;20214;-41
2023/07/20 04:11:32;;;;;;;4.07;2.58;;;;;;;;;;5117025;28;20225;-40
2023/07/20 04:13:59;;;;;;;3.58;2.38;;;;;;;;;;5116363;28;20222;-40
2023/07/20 04:16:27;;;;;;;4.35;2.63;;;;;;;;;;5098474;28;20234;-41
2023/07/20 04:18:56;;;;;;;5.60;2.78;;;;;;;;;;5097955;28;20287;-40
2023/07/20 04:21:25;;;;;;;5.60;2.35;;;;;;;;;;5117305;28;20221;-40
2023/07/20 04:23:53;;;;;;;5.25;2.55;;;;;;;;;;5098497;28;20221;-40
2023/07/20 04:26:20;;;;;;;3.97;2.58;;;;;;;;;;5107717;28;20264;-41
2023/07/20 04:28:50;;;;;;;3.42;2.50;;;;;;;;;;5092709;28;20237;-42
2023/07/20 04:31:33;;;;;;;3.47;2.60;;;;;;;;;;5098646;28;20222;-40
2023/07/20 04:34:00;;;;;;;5.13;2.65;;;;;;;;;;5097875;28;20224;-40
2023/07/20 04:36:28;;;;;;;4.30;2.38;;;;;;;;;;5098654;28;20229;-44
2023/07/20 04:38:56;;;;;;;4.75;2.92;;;;;;;;;;5097921;28;20241;-40
2023/07/20 04:41:24;;;;;;;4.65;2.38;;;;;;;;;;5098381;28;20214;-40
2023/07/20 04:43:54;;;;;;;2.72;2.30;;;;;;;;;;5097944;28;20229;-41
2023/07/20 04:46:27;;;;;;;5.93;4.30;;;;;;;;;;5098492;28;20218;-40
2023/07/20 04:48:56;;;;;;;4.18;2.80;;;;;;;;;;5086521;28;20235;-40
2023/07/20 04:51:24;;;;;;;4.72;2.53;;;;;;;;;;5077631;28;20313;-40
2023/07/20 04:53:54;;;;;;;5.28;2.38;;;;;;;;;;5095558;28;20231;-41
2023/07/20 04:56:23;;;;;;;5.22;2.45;;;;;;;;;;5078017;28;20333;-40
2023/07/20 04:58:52;;;;;;;3.65;2.30;;;;;;;;;;5087733;28;20222;-40
2023/07/20 05:01:19;;;;;;;5.38;2.80;;;;;;;;;;5098004;28;20229;-41
2023/07/20 05:03:46;;;;;;;4.10;2.58;;;;;;;;;;5096333;28;20665;-42
2023/07/20 05:06:14;;;;;;;4.47;2.42;;;;;;;;;;5096791;28;20226;-40
2023/07/20 05:20:34;;;;;;;4.00;2.50;;;;;;;;;;5131436;27;20547;-37
2023/07/20 05:23:02;;;;;;;5.15;3.15;;;;;;;;;;5131131;28;20202;-37
2023/07/20 05:25:29;;;;;;;4.25;2.45;;;;;;;;;;5113135;28;20201;-37
2023/07/20 05:27:58;;;;;;;3.42;2.47;;;;;;;;;;5131105;28;20588;-37
2023/07/20 05:30:25;;;;;;;4.18;2.63;;;;;;;;;;5131102;28;20219;-37
2023/07/20 05:32:54;;;;;;;4.70;2.95;;;;;;;;;;5131211;28;20205;-37
2023/07/20 05:35:22;;;;;;;8.40;2.90;;;;;;;;;;5131068;28;20193;-37
2023/07/20 05:37:49;;;;;;;3.60;2.80;;;;;;;;;;5131340;28;20201;-37
2023/07/20 05:40:20;;;;;;;3.15;2.47;;;;;;;;;;5131150;28;20221;-38
2023/07/20 05:42:51;;;;;;;5.10;3.33;;;;;;;;;;5130977;28;20649;-37
2023/07/20 05:45:20;;;;;;;5.38;3.00;;;;;;;;;;5131227;28;20210;-38
2023/07/20 05:47:47;;;;;;;3.10;2.70;;;;;;;;;;5130736;28;20680;-37
2023/07/20 05:50:14;;;;;;;3.35;2.53;;;;;;;;;;5130779;28;20254;-36
2023/07/20 05:52:41;;;;;;;5.40;2.25;;;;;;;;;;5130702;28;20684;-36
2023/07/20 05:55:08;;;;;;;3.60;2.42;;;;;;;;;;5130717;28;20197;-36
2023/07/20 05:57:39;;;;;;;4.68;2.47;;;;;;;;;;5130617;28;20657;-38
2023/07/20 06:00:07;;;;;;;6.72;2.92;;;;;;;;;;5112971;28;20189;-36
2023/07/20 06:02:42;;;;;;;3.97;2.55;;;;;;;;;;5130951;28;20186;-37
2023/07/20 06:05:09;;;;;;;2.65;2.20;;;;;;;;;;5130769;28;20242;-36
2023/07/20 06:07:37;;;;;;;4.30;2.28;;;;;;;;;;5130405;28;20684;-36
2023/07/20 06:10:06;;;;;;;3.80;2.20;;;;;;;;;;5130557;28;20236;-37
2023/07/20 06:12:33;;;;;;;5.43;2.50;;;;;;;;;;5130555;28;20654;-38
2023/07/20 06:15:05;;;;;;;5.60;2.70;;;;;;;;;;5130526;28;20549;-36
2023/07/20 06:17:32;;;;;;;3.33;2.35;;;;;;;;;;5130732;28;20197;-40
2023/07/20 06:20:00;;;;;;;6.32;3.13;;;;;;;;;;5125267;28;20766;-47
2023/07/20 06:22:27;;;;;;;3.72;2.92;;;;;;;;;;5117025;28;20222;-45
2023/07/20 06:24:54;;;;;;;4.70;2.38;;;;;;;;;;5116652;28;20210;-39
2023/07/20 06:27:21;;;;;;;4.60;2.50;;;;;;;;;;5116871;28;20202;-39
2023/07/20 06:29:48;;;;;;;3.65;2.03;;;;;;;;;;5116821;28;20241;-39
2023/07/20 06:32:16;;;;;;;6.00;2.00;;;;;;;;;;5116505;28;20213;-40
2023/07/20 06:34:42;;;;;;;3.03;2.28;;;;;;;;;;5116449;28;20202;-40
2023/07/20 06:37:10;;;;;;;3.53;2.20;;;;;;;;;;5116515;28;20198;-40
2023/07/20 06:39:37;;;;;;;2.72;2.10;;;;;;;;;;5116667;28;20216;-41
2023/07/20 06:42:07;;;;;;;2.50;2.13;;;;;;;;;;5116407;28;20229;-40
2023/07/20 06:44:34;;;;;;;2.33;1.92;;;;;;;;;;5116537;28;20202;-41
2023/07/20 06:47:01;;;;;;;3.25;1.95;;;;;;;;;;5116183;28;20210;-41
2023/07/20 06:49:28;;;;;;;5.25;1.98;;;;;;;;;;5116065;28;20576;-40
2023/07/20 06:51:56;;;;;;;3.90;2.22;;;;;;;;;;5116260;28;20206;-40
2023/07/20 06:54:23;;;;;;;3.38;2.35;;;;;;;;;;5116062;28;20193;-40
2023/07/20 06:56:51;;;;;;;5.75;2.35;;;;;;;;;;5116145;28;20247;-42
2023/07/20 06:59:21;;;;;;;3.53;2.40;;;;;;;;;;5116034;28;20654;-45
2023/07/20 07:01:48;;;;;;;3.33;2.10;;;;;;;;;;5116224;28;20212;-38
2023/07/20 07:04:15;;;;;;;4.07;2.40;;;;;;;;;;5115921;28;20230;-41
2023/07/20 07:06:44;;;;;;;6.32;2.28;;;;;;;;;;5115874;28;20198;-41
2023/07/20 07:09:11;;;;;;;4.85;2.50;;;;;;;;;;5115748;28;20267;-41
2023/07/20 07:11:38;;;;;;;3.92;2.10;;;;;;;;;;5116014;28;20267;-41
2023/07/20 07:14:05;;;;;;;3.15;2.42;;;;;;;;;;5115704;28;20198;-42
2023/07/20 07:16:34;;;;;;;2.72;2.28;;;;;;;;;;5115620;28;20206;-45
2023/07/20 07:19:05;;;;;;;5.50;2.33;;;;;;;;;;5115685;28;20721;-43
2023/07/20 07:21:33;;;;;;;3.72;2.40;;;;;;;;;;5115629;28;20566;-41
2023/07/20 07:24:00;;;;;;;3.30;2.30;;;;;;;;;;5115711;28;20551;-41
2023/07/20 07:26:27;;;;;;;2.55;2.10;;;;;;;;;;5115498;28;20649;-43
2023/07/20 07:28:54;;;;;;;3.13;2.17;;;;;;;;;;5115399;28;20218;-42
2023/07/20 07:31:21;;;;;;;3.65;2.30;;;;;;;;;;5115030;28;20198;-42
2023/07/20 07:33:48;;;;;;;8.77;2.63;;;;;;;;;;5115114;28;20206;-41
2023/07/20 07:36:15;;;;;;;3.17;2.22;;;;;;;;;;5115244;28;20209;-42
2023/07/20 07:38:42;;;;;;;8.55;2.28;;;;;;;;;;5115417;28;20293;-42
2023/07/20 07:41:14;;;;;;;2.80;2.13;;;;;;;;;;5115499;28;20202;-41
2023/07/20 07:43:40;;;;;;;4.00;2.30;;;;;;;;;;5115197;28;20290;-37
2023/07/20 07:46:08;;;;;;;5.65;2.15;;;;;;;;;;5115269;28;20202;-39
2023/07/20 07:48:35;;;;;;;5.28;2.50;;;;;;;;;;5114799;28;20206;-43
2023/07/20 07:51:02;;;;;;;5.45;2.50;;;;;;;;;;5114979;28;20202;-43
2023/07/20 07:53:29;;;;;;;15.10;6.45;;;;;;;;;;5114899;28;20240;-40
2023/07/20 07:55:56;;;;;;;8.32;5.03;;;;;;;;;;5096538;28;20191;-44
2023/07/20 07:58:24;;;;;;;12.60;2.55;;;;;;;;;;5094625;28;20222;-48
2023/07/20 08:00:51;;;;;;;7.55;2.58;;;;;;;;;;5094491;28;20203;-46
2023/07/20 08:03:18;;;;;;;4.00;2.47;;;;;;;;;;5094650;28;20194;-43
2023/07/20 08:05:46;;;;;;;5.60;2.38;;;;;;;;;;5094335;28;20202;-45
2023/07/20 08:08:13;;;;;;;8.45;2.53;;;;;;;;;;5094391;28;20202;-44
2023/07/20 08:10:40;;;;;;;3.85;2.60;;;;;;;;;;5097873;28;20226;-50
2023/07/20 08:13:07;;;;;;;3.60;2.38;;;;;;;;;;5113978;28;20310;-47
2023/07/20 08:15:34;;;;;;;3.53;2.50;;;;;;;;;;5114427;28;20205;-45
2023/07/20 08:18:01;;;;;;;3.97;2.10;;;;;;;;;;5114464;28;20253;-47
2023/07/20 08:20:29;;;;;;;4.38;2.38;;;;;;;;;;5114599;28;20229;-45
2023/07/20 08:22:56;;;;;;;3.95;2.47;;;;;;;;;;5114419;28;20224;-50
2023/07/20 08:25:23;;;;;;;4.13;2.50;;;;;;;;;;5114624;28;20198;-47
2023/07/20 08:27:51;;;;;;;2.58;2.25;;;;;;;;;;5114737;28;20247;-47
2023/07/20 08:30:21;;;;;;;3.80;2.50;;;;;;;;;;5114275;28;20226;-45
2023/07/20 08:32:48;;;;;;;7.07;2.60;;;;;;;;;;5114271;28;20550;-48
2023/07/20 08:35:16;;;;;;;2.78;2.38;;;;;;;;;;5114053;28;20210;-47
2023/07/20 08:37:43;;;;;;;3.20;2.45;;;;;;;;;;5114001;28;20202;-44
2023/07/20 08:40:11;;;;;;;3.30;2.33;;;;;;;;;;5096074;28;20692;-47
2023/07/20 08:42:38;;;;;;;3.20;2.55;;;;;;;;;;5113430;28;20617;-47
2023/07/20 08:45:08;;;;;;;3.83;2.83;;;;;;;;;;5114075;28;20198;-47
2023/07/20 08:47:35;;;;;;;3.45;2.67;;;;;;;;;;5096008;28;20654;-46
2023/07/20 08:50:06;;;;;;;4.45;2.78;;;;;;;;;;5114203;28;20621;-47
2023/07/20 08:52:34;;;;;;;4.82;2.70;;;;;;;;;;5114071;28;20206;-47
2023/07/20 08:55:03;;;;;;;5.22;2.70;;;;;;;;;;5114174;28;20228;-44
2023/07/20 08:57:34;;;;;;;4.32;2.58;;;;;;;;;;5096414;28;20202;-44
2023/07/20 09:00:05;;;;;;;4.85;2.35;;;;;;;;;;5114058;28;20657;-46
2023/07/20 09:02:35;;;;;;;4.30;2.55;;;;;;;;;;5108605;28;20190;-47
2023/07/20 09:05:03;;;;;;;6.18;2.75;;;;;;;;;;5098616;28;20195;-51
2023/07/20 09:07:31;;;;;;;3.35;2.33;;;;;;;;;;5093115;28;20214;-48
2023/07/20 09:09:58;;;;;;;4.65;2.80;;;;;;;;;;5080445;28;20287;-44
2023/07/20 09:12:25;;;;;;;3.45;2.20;;;;;;;;;;5102855;28;20194;-49
2023/07/20 09:14:57;;;;;;;4.53;2.30;;;;;;;;;;5100941;28;20199;-48
2023/07/20 09:17:26;;;;;;;3.30;2.15;;;;;;;;;;5101340;28;20700;-49
2023/07/20 09:19:53;;;;;;;4.57;2.75;;;;;;;;;;5112767;28;20229;-48
2023/07/20 09:22:20;;;;;;;2.88;2.30;;;;;;;;;;5113321;28;20247;-49
2023/07/20 09:24:48;;;;;;;5.55;2.63;;;;;;;;;;5113248;28;20201;-50
2023/07/20 09:27:17;;;;;;;2.65;2.35;;;;;;;;;;5113749;28;20194;-48
2023/07/20 09:29:49;;;;;;;2.75;2.15;;;;;;;;;;5113002;28;20218;-49
2023/07/20 09:32:21;;;;;;;4.88;2.50;;;;;;;;;;5113845;28;20194;-48
2023/07/20 09:34:52;;;;;;;3.88;2.05;;;;;;;;;;5113530;28;20182;-49
2023/07/20 09:37:23;;;;;;;3.88;2.17;;;;;;;;;;5113242;28;20299;-48
2023/07/20 09:39:53;;;;;;;4.32;2.05;;;;;;;;;;5113214;28;20190;-47
2023/07/20 09:42:25;;;;;;;3.50;2.28;;;;;;;;;;5095620;28;20190;-46
2023/07/20 09:44:56;;;;;;;4.95;2.28;;;;;;;;;;5095636;28;20189;-47
2023/07/20 09:47:24;;;;;;;4.82;2.60;;;;;;;;;;5095604;28;20203;-49
2023/07/20 09:49:59;;;;;;;3.53;2.33;;;;;;;;;;5094851;28;20595;-51
2023/07/20 09:52:29;;;;;;;4.50;2.35;;;;;;;;;;5092575;28;20638;-49
2023/07/20 09:55:01;;;;;;;4.05;2.33;;;;;;;;;;5093442;28;20240;-49
2023/07/20 09:57:28;;;;;;;3.80;2.03;;;;;;;;;;5079077;28;20199;-49
2023/07/20 09:59:57;;;;;;;3.17;2.10;;;;;;;;;;5079002;28;20207;-49
2023/07/20 10:02:46;;;;;;;5.07;2.72;;;;;;;;;;5096702;28;20244;-48
2023/07/20 10:05:14;;;;;;;3.08;2.30;;;;;;;;;;5096369;28;20654;-48
2023/07/20 10:07:48;;;;;;;3.08;2.20;;;;;;;;;;5096839;28;20199;-48
2023/07/20 10:10:19;;;;;;;3.08;2.03;;;;;;;;;;5096882;28;20218;-49
2023/07/20 10:12:51;;;;;;;4.45;2.65;;;;;;;;;;5096473;28;20211;-48
2023/07/20 10:15:23;;;;;;;2.38;2.17;;;;;;;;;;5079181;28;20202;-47
2023/07/20 10:18:08;;;;;;;3.67;2.33;;;;;;;;;;5078772;28;20206;-49
2023/07/20 10:20:39;;;;;;;4.68;2.50;;;;;;;;;;5096739;28;20191;-47
2023/07/20 10:23:28;;;;;;;2.88;2.30;;;;;;;;;;5096258;28;20199;-49
2023/07/20 10:25:57;;;;;;;4.28;2.42;;;;;;;;;;5096681;28;20206;-47
2023/07/20 10:28:28;;;;;;;3.05;2.42;;;;;;;;;;5078786;28;20187;-50
2023/07/20 10:30:55;;;;;;;4.22;2.40;;;;;;;;;;5096179;28;20248;-48
2023/07/20 10:33:22;;;;;;;1.92;1.77;;;;;;;;;;5110954;28;20198;-47
2023/07/20 10:36:02;;;;;;;2.65;2.10;;;;;;;;;;5105609;28;20198;-48
2023/07/20 10:38:47;;;;;;;6.00;2.20;;;;;;;;;;5096105;28;20198;-47
2023/07/20 10:41:20;;;;;;;3.80;2.55;;;;;;;;;;5096025;28;20199;-48
2023/07/20 10:43:49;;;;;;;5.65;2.67;;;;;;;;;;5095921;28;20198;-49
2023/07/20 10:46:39;;;;;;;2.63;2.05;;;;;;;;;;5095848;28;20209;-50
2023/07/20 10:49:08;;;;;;;4.10;1.98;;;;;;;;;;5081212;28;20673;-49
2023/07/20 10:51:42;;;;;;;4.82;2.58;;;;;;;;;;5098368;28;20329;-53
2023/07/20 10:54:29;;;;;;;3.95;2.38;;;;;;;;;;5104999;28;20183;-49
2023/07/20 10:57:30;;;;;;;4.80;2.90;;;;;;;;;;5090035;28;20255;-49
2023/07/20 11:00:11;;;;;;;3.63;2.30;;;;;;;;;;5103364;28;20195;-48
2023/07/20 11:02:43;;;;;;;3.70;2.10;;;;;;;;;;5105056;28;20244;-48
2023/07/20 11:05:32;;;;;;;3.25;2.30;;;;;;;;;;5103496;28;20214;-49
2023/07/20 11:07:59;;;;;;;5.22;2.70;;;;;;;;;;5103041;28;20190;-48
2023/07/20 11:10:26;;;;;;;5.03;2.95;;;;;;;;;;5099474;28;20222;-50
2023/07/20 11:13:19;;;;;;;3.08;2.58;;;;;;;;;;5087651;28;20198;-51
2023/07/20 11:15:47;;;;;;;5.88;2.90;;;;;;;;;;5095382;28;20278;-51
2023/07/20 11:18:15;;;;;;;3.42;2.33;;;;;;;;;;5102327;28;20206;-46
2023/07/20 11:20:42;;;;;;;7.05;2.95;;;;;;;;;;5105570;28;20527;-50
2023/07/20 11:23:09;;;;;;;5.97;2.28;;;;;;;;;;5105536;28;20202;-46
2023/07/20 11:25:40;;;;;;;5.22;2.50;;;;;;;;;;5085502;28;20199;-49
2023/07/20 11:28:11;;;;;;;6.88;2.20;;;;;;;;;;5103760;28;20198;-47
2023/07/20 11:30:38;;;;;;;3.15;2.08;;;;;;;;;;5094501;28;20206;-47
2023/07/20 11:33:10;;;;;;;4.32;2.85;;;;;;;;;;5107247;28;20198;-48
2023/07/20 11:35:50;;;;;;;2.63;2.40;;;;;;;;;;5101475;28;20251;-48
2023/07/20 11:38:18;;;;;;;3.75;2.70;;;;;;;;;;5102075;28;20803;-50
2023/07/20 11:40:45;;;;;;;5.35;2.80;;;;;;;;;;5102980;28;20201;-47
2023/07/20 11:43:13;;;;;;;3.75;2.67;;;;;;;;;;5094278;28;20198;-47
2023/07/20 11:45:44;;;;;;;3.20;2.33;;;;;;;;;;5094767;28;20232;-46
2023/07/20 11:48:16;;;;;;;3.90;2.45;;;;;;;;;;5076741;28;20547;-44
2023/07/20 11:50:43;;;;;;;3.17;2.40;;;;;;;;;;5094674;28;20215;-48
2023/07/20 11:53:10;;;;;;;5.75;2.90;;;;;;;;;;5094397;28;20268;-46
2023/07/20 11:55:38;;;;;;;4.25;2.95;;;;;;;;;;5059361;28;20594;-44
2023/07/20 11:58:07;;;;;;;7.35;2.90;;;;;;;;;;5075395;28;20202;-47
2023/07/20 12:00:35;;;;;;;4.60;2.70;;;;;;;;;;5094540;28;20214;-45
2023/07/20 12:03:06;;;;;;;5.05;3.03;;;;;;;;;;5094343;28;20199;-47
2023/07/20 12:05:34;;;;;;;3.42;2.47;;;;;;;;;;5094139;28;20631;-47
2023/07/20 12:08:21;;;;;;;3.22;2.60;;;;;;;;;;5094275;28;20198;-43
2023/07/20 12:10:49;;;;;;;5.63;2.88;;;;;;;;;;5093984;28;20215;-44
2023/07/20 12:13:17;;;;;;;3.30;2.58;;;;;;;;;;5094201;28;20203;-45
2023/07/20 12:15:44;;;;;;;4.53;2.20;;;;;;;;;;5107500;28;20194;-48
2023/07/20 12:18:12;;;;;;;3.45;2.13;;;;;;;;;;5108461;28;20588;-47
2023/07/20 12:20:39;;;;;;;2.95;2.08;;;;;;;;;;5092328;28;20199;-47
2023/07/20 12:23:11;;;;;;;2.95;1.90;;;;;;;;;;5092942;28;20670;-47
2023/07/20 12:25:45;;;;;;;3.17;1.70;;;;;;;;;;5098571;28;20199;-47
2023/07/20 12:28:15;;;;;;;1.90;1.30;;;;;;;;;;5090042;28;20226;-45
2023/07/20 12:30:44;;;;;;;4.53;2.20;;;;;;;;;;5095478;28;20230;-44
2023/07/20 12:33:15;;;;;;;2.53;1.67;;;;;;;;;;5091094;28;20227;-46
2023/07/20 12:35:45;;;;;;;6.65;1.90;;;;;;;;;;5105291;28;20226;-45
2023/07/20 12:38:13;;;;;;;3.92;1.73;;;;;;;;;;5103803;28;20224;-46
2023/07/20 12:40:40;;;;;;;3.95;1.55;;;;;;;;;;5100946;28;20225;-45
2023/07/20 12:43:08;;;;;;;2.20;1.40;;;;;;;;;;5094387;28;20588;-44
2023/07/20 12:45:35;;;;;;;5.85;1.48;;;;;;;;;;5109008;28;20237;-45
2023/07/20 12:48:03;;;;;;;2.72;1.77;;;;;;;;;;5102403;28;20210;-47
2023/07/20 12:50:30;;;;;;;1.27;1.10;;;;;;;;;;5101063;28;20230;-44
2023/07/20 12:52:57;;;;;;;1.17;1.02;;;;;;;;;;5096713;28;20229;-45
2023/07/20 12:55:24;;;;;;;2.65;1.35;;;;;;;;;;5105396;28;20223;-47
2023/07/20 12:57:52;;;;;;;1.50;1.25;;;;;;;;;;5092462;28;20227;-50
2023/07/20 13:00:19;;;;;;;2.70;1.40;;;;;;;;;;5091703;28;20257;-45
2023/07/20 13:02:47;;;;;;;1.73;1.05;;;;;;;;;;5093072;28;20234;-47
2023/07/20 13:05:14;;;;;;;3.28;1.42;;;;;;;;;;5092054;28;20218;-45
2023/07/20 13:07:42;;;;;;;3.92;1.70;;;;;;;;;;5092548;28;20226;-45
2023/07/20 13:10:12;;;;;;;2.03;1.08;;;;;;;;;;5092246;28;20234;-48
2023/07/20 13:12:39;;;;;;;1.83;1.20;;;;;;;;;;5092496;28;20237;-45
2023/07/20 13:15:08;;;;;;;1.95;1.38;;;;;;;;;;5091780;28;20634;-49
2023/07/20 13:17:37;;;;;;;1.90;1.30;;;;;;;;;;5092818;28;20219;-45
2023/07/20 13:20:07;;;;;;;2.17;1.30;;;;;;;;;;5091901;28;20716;-44
2023/07/20 13:22:35;;;;;;;1.98;1.20;;;;;;;;;;5092509;28;20706;-46
2023/07/20 13:25:02;;;;;;;2.10;1.63;;;;;;;;;;5091832;28;20627;-44
2023/07/20 13:27:31;;;;;;;2.60;1.23;;;;;;;;;;5092453;28;20223;-45
2023/07/20 13:30:00;;;;;;;1.33;1.20;;;;;;;;;;5092163;28;20768;-46
2023/07/20 13:32:30;;;;;;;2.05;1.20;;;;;;;;;;5096480;28;20227;-50
2023/07/20 13:35:00;;;;;;;1.98;1.35;;;;;;;;;;5096113;28;20218;-47
2023/07/20 13:37:28;;;;;;;4.32;1.38;;;;;;;;;;5099207;28;20218;-45
2023/07/20 13:39:55;;;;;;;1.85;1.17;;;;;;;;;;5104752;28;20210;-47
2023/07/20 13:42:24;;;;;;;1.52;1.30;;;;;;;;;;5105419;28;20214;-44
2023/07/20 13:44:51;;;;;;;1.42;1.05;;;;;;;;;;5106181;28;20217;-46
2023/07/20 13:47:18;;;;;;;2.35;1.00;;;;;;;;;;5098970;28;20211;-44
2023/07/20 13:49:48;;;;;;;2.72;1.00;;;;;;;;;;5110114;28;20214;-48
2023/07/20 13:52:29;;;;;;;1.45;1.00;;;;;;;;;;5105774;28;20210;-45
2023/07/20 13:54:59;;;;;;;2.92;0.93;;;;;;;;;;5103243;28;20207;-44
2023/07/20 13:57:31;;;;;;;1.80;1.08;;;;;;;;;;5095486;28;20230;-44
2023/07/20 14:00:01;;;;;;;1.40;0.90;;;;;;;;;;5099059;28;20601;-45
2023/07/20 14:02:37;;;;;;;1.05;0.63;;;;;;;;;;5103900;28;20222;-45
2023/07/20 14:05:09;;;;;;;2.13;0.98;;;;;;;;;;5095813;28;20597;-45
2023/07/20 14:07:39;;;;;;;1.27;0.80;;;;;;;;;;5103701;28;20218;-44
2023/07/20 14:10:07;;;;;;;1.35;1.10;;;;;;;;;;5106159;28;20219;-44
2023/07/20 14:12:37;;;;;;;1.25;1.05;;;;;;;;;;5103392;28;20226;-45
2023/07/20 14:15:05;;;;;;;1.60;0.93;;;;;;;;;;5112595;28;20300;-46
2023/07/20 14:17:32;;;;;;;1.95;1.42;;;;;;;;;;5101130;28;20222;-44
2023/07/20 14:19:59;;;;;;;2.40;0.80;;;;;;;;;;5093444;28;20234;-48
2023/07/20 14:22:27;;;;;;;1.27;1.10;;;;;;;;;;5099143;28;20214;-44
2023/07/20 14:24:54;;;;;;;2.13;1.15;;;;;;;;;;5103558;28;20226;-45
2023/07/20 14:27:22;;;;;;;2.00;0.90;;;;;;;;;;5107250;28;20230;-43
2023/07/20 14:29:49;;;;;;;1.13;1.02;;;;;;;;;;5111086;28;20263;-43
2023/07/20 14:32:16;;;;;;;1.70;1.17;;;;;;;;;;5097244;28;20237;-46
2023/07/20 14:34:43;;;;;;;1.15;1.05;;;;;;;;;;5115876;28;20233;-44
2023/07/20 14:37:13;;;;;;;1.38;0.95;;;;;;;;;;5115517;28;20229;-43
2023/07/20 14:39:40;;;;;;;2.15;1.10;;;;;;;;;;5116023;28;20257;-44
2023/07/20 14:42:07;;;;;;;1.70;1.05;;;;;;;;;;5099271;28;20234;-45
2023/07/20 14:44:34;;;;;;;2.00;1.27;;;;;;;;;;5095302;28;20712;-44
2023/07/20 14:47:04;;;;;;;1.30;0.90;;;;;;;;;;5098472;28;20588;-44
2023/07/20 14:49:41;;;;;;;1.98;1.17;;;;;;;;;;5099758;28;20225;-46
2023/07/20 14:52:09;;;;;;;4.15;1.08;;;;;;;;;;5102286;28;20234;-46
2023/07/20 14:54:39;;;;;;;1.88;1.10;;;;;;;;;;5088719;28;20245;-44
2023/07/20 14:57:13;;;;;;;1.27;0.98;;;;;;;;;;5110670;28;20218;-45
2023/07/20 14:59:41;;;;;;;1.27;1.00;;;;;;;;;;5109390;28;20244;-48
2023/07/20 15:02:09;;;;;;;2.42;0.90;;;;;;;;;;5094748;28;20222;-43
2023/07/20 15:04:36;;;;;;;3.03;1.23;;;;;;;;;;5095223;28;20223;-43
2023/07/20 15:07:04;;;;;;;2.38;1.13;;;;;;;;;;5095493;28;20202;-44